Time;durP1;ratioP1;P1;durP2;ratioP2;P2;SDS_P1;SDS_P2;PMS_P1;PMS_P2;Temp;Humidity;BMP_temperature;BMP_pressure;BME280_temperature;BME280_humidity;BME280_pressure;Samples;Min_cycle;Max_cycle;Signal;HPM_P1;HPM_P2
2022/01/29 00:01:59;;;;;;;6.97;3.97;;;;;;;;;;5076295;28;20232;-81
2022/01/29 00:04:26;;;;;;;4.00;3.22;;;;;;;;;;5076500;28;20209;-81
2022/01/29 00:06:54;;;;;;;3.92;3.10;;;;;;;;;;5076313;28;20282;-81
2022/01/29 00:09:21;;;;;;;4.25;3.33;;;;;;;;;;5075711;28;20578;-81
2022/01/29 00:11:49;;;;;;;3.65;2.92;;;;;;;;;;5075386;28;20296;-81
2022/01/29 00:14:17;;;;;;;5.45;3.67;;;;;;;;;;5075094;28;20259;-81
2022/01/29 00:16:44;;;;;;;6.50;4.80;;;;;;;;;;5075758;28;20638;-81
2022/01/29 00:19:11;;;;;;;3.47;3.17;;;;;;;;;;5075652;28;20205;-81
2022/01/29 00:21:38;;;;;;;6.95;4.38;;;;;;;;;;5075068;28;20212;-81
2022/01/29 00:24:07;;;;;;;4.80;3.90;;;;;;;;;;5075497;28;20203;-81
2022/01/29 00:26:34;;;;;;;6.90;5.22;;;;;;;;;;5075496;28;20220;-81
2022/01/29 00:29:09;;;;;;;7.25;5.18;;;;;;;;;;5076203;28;20578;-81
2022/01/29 00:31:36;;;;;;;5.13;4.38;;;;;;;;;;5075106;28;20307;-81
2022/01/29 00:34:03;;;;;;;5.90;3.80;;;;;;;;;;5075608;28;20201;-80
2022/01/29 00:36:31;;;;;;;5.97;4.55;;;;;;;;;;5075064;28;20192;-81
2022/01/29 00:38:58;;;;;;;4.05;3.42;;;;;;;;;;5075666;28;20208;-81
2022/01/29 00:41:25;;;;;;;4.85;3.50;;;;;;;;;;5074588;28;20205;-81
2022/01/29 00:43:52;;;;;;;5.95;3.95;;;;;;;;;;5075595;28;20270;-81
2022/01/29 00:46:21;;;;;;;5.82;4.10;;;;;;;;;;5075217;28;20225;-80
2022/01/29 00:48:48;;;;;;;5.88;4.00;;;;;;;;;;5075129;28;20254;-80
2022/01/29 00:51:16;;;;;;;6.47;4.57;;;;;;;;;;5075614;28;20208;-82
2022/01/29 00:53:43;;;;;;;7.57;5.22;;;;;;;;;;5075776;28;20697;-81
2022/01/29 00:56:10;;;;;;;5.88;4.82;;;;;;;;;;5075306;28;20552;-80
2022/01/29 00:58:37;;;;;;;8.00;4.47;;;;;;;;;;5074580;28;20712;-81
2022/01/29 01:01:05;;;;;;;6.10;4.03;;;;;;;;;;5075113;28;20673;-81
2022/01/29 01:03:34;;;;;;;5.03;3.90;;;;;;;;;;5074487;28;20658;-81
2022/01/29 01:06:01;;;;;;;6.22;5.35;;;;;;;;;;5074664;28;20627;-81
2022/01/29 01:08:28;;;;;;;5.38;4.35;;;;;;;;;;5074232;28;20777;-81
2022/01/29 01:10:55;;;;;;;6.25;4.07;;;;;;;;;;5073867;28;20201;-80
2022/01/29 01:13:23;;;;;;;6.95;4.78;;;;;;;;;;5073995;28;20201;-81
2022/01/29 01:15:50;;;;;;;6.40;4.88;;;;;;;;;;5074765;28;20209;-81
2022/01/29 01:18:18;;;;;;;3.88;3.58;;;;;;;;;;5074063;28;20229;-80
2022/01/29 01:20:46;;;;;;;4.72;3.70;;;;;;;;;;5074609;28;20204;-81
2022/01/29 01:23:14;;;;;;;5.88;5.13;;;;;;;;;;5074340;28;20201;-80
2022/01/29 01:25:41;;;;;;;7.35;5.00;;;;;;;;;;5074039;28;20208;-80
2022/01/29 01:28:09;;;;;;;5.57;4.40;;;;;;;;;;5073708;28;20220;-80
2022/01/29 01:30:36;;;;;;;8.18;5.15;;;;;;;;;;5073616;28;20287;-81
2022/01/29 01:33:04;;;;;;;5.82;5.28;;;;;;;;;;5074284;28;20197;-81
2022/01/29 01:35:36;;;;;;;7.90;4.72;;;;;;;;;;5073795;28;20201;-81
2022/01/29 01:38:12;;;;;;;6.32;5.22;;;;;;;;;;5074355;28;20249;-81
2022/01/29 01:40:42;;;;;;;11.80;5.93;;;;;;;;;;5074248;28;20203;-81
2022/01/29 01:43:10;;;;;;;6.25;5.53;;;;;;;;;;5074005;28;20205;-81
2022/01/29 01:45:37;;;;;;;5.97;4.80;;;;;;;;;;5073615;28;20201;-81
2022/01/29 01:48:06;;;;;;;4.85;4.28;;;;;;;;;;5072552;28;20229;-81
2022/01/29 01:50:35;;;;;;;4.78;3.60;;;;;;;;;;5074273;28;20200;-80
2022/01/29 01:53:05;;;;;;;6.32;5.00;;;;;;;;;;5073816;28;20201;-80
2022/01/29 01:55:32;;;;;;;9.88;6.05;;;;;;;;;;5073899;28;20560;-81
2022/01/29 01:58:01;;;;;;;8.23;4.45;;;;;;;;;;5073551;28;20228;-81
2022/01/29 02:00:29;;;;;;;6.28;4.70;;;;;;;;;;5073637;28;20321;-81
2022/01/29 02:02:58;;;;;;;5.88;4.47;;;;;;;;;;5073236;28;20201;-81
2022/01/29 02:05:25;;;;;;;5.32;4.32;;;;;;;;;;5073372;28;20695;-81
2022/01/29 02:07:53;;;;;;;3.42;3.13;;;;;;;;;;5073433;28;20814;-81
2022/01/29 02:10:24;;;;;;;4.43;3.63;;;;;;;;;;5073085;28;20201;-80
2022/01/29 02:12:56;;;;;;;6.57;4.75;;;;;;;;;;5073277;28;20262;-81
2022/01/29 02:15:24;;;;;;;5.03;4.55;;;;;;;;;;5073578;28;20288;-81
2022/01/29 02:17:52;;;;;;;5.57;3.97;;;;;;;;;;5073242;28;20275;-80
2022/01/29 02:20:22;;;;;;;8.35;4.30;;;;;;;;;;5073507;28;20208;-81
2022/01/29 02:22:51;;;;;;;4.50;3.53;;;;;;;;;;5074396;28;20189;-81
2022/01/29 02:25:37;;;;;;;5.30;4.00;;;;;;;;;;5073143;28;20216;-81
2022/01/29 02:28:08;;;;;;;5.80;4.13;;;;;;;;;;5073274;28;20224;-81
2022/01/29 02:30:38;;;;;;;5.63;4.13;;;;;;;;;;5073598;28;20197;-81
2022/01/29 02:33:07;;;;;;;4.10;3.70;;;;;;;;;;5073088;28;20254;-81
2022/01/29 02:35:37;;;;;;;7.57;4.85;;;;;;;;;;5073178;28;20196;-81
2022/01/29 02:38:05;;;;;;;6.07;4.88;;;;;;;;;;5073951;28;20217;-81
2022/01/29 02:40:36;;;;;;;6.45;5.15;;;;;;;;;;5073890;28;20661;-81
2022/01/29 02:43:12;;;;;;;5.40;4.60;;;;;;;;;;5073329;28;20205;-80
2022/01/29 02:45:41;;;;;;;3.92;3.60;;;;;;;;;;5073047;28;20200;-80
2022/01/29 02:48:09;;;;;;;4.32;3.92;;;;;;;;;;5073073;28;20225;-81
2022/01/29 02:50:36;;;;;;;3.80;3.42;;;;;;;;;;5072771;28;20201;-81
2022/01/29 02:53:05;;;;;;;4.22;3.65;;;;;;;;;;5073337;28;20613;-81
2022/01/29 02:55:32;;;;;;;4.18;3.78;;;;;;;;;;5073356;28;20576;-81
2022/01/29 02:58:00;;;;;;;5.68;3.88;;;;;;;;;;5073214;28;20609;-81
2022/01/29 03:00:27;;;;;;;5.95;4.18;;;;;;;;;;5073849;28;20205;-81
2022/01/29 03:02:55;;;;;;;5.53;4.15;;;;;;;;;;5073450;28;20631;-81
2022/01/29 03:05:22;;;;;;;5.25;4.10;;;;;;;;;;5073787;28;20197;-81
2022/01/29 03:07:49;;;;;;;5.68;3.75;;;;;;;;;;5073646;28;20229;-81
2022/01/29 03:10:18;;;;;;;3.58;2.97;;;;;;;;;;5073438;28;20227;-81
2022/01/29 03:12:46;;;;;;;4.07;3.78;;;;;;;;;;5073022;28;20548;-81
2022/01/29 03:15:14;;;;;;;9.95;4.40;;;;;;;;;;5073366;28;20212;-81
2022/01/29 03:17:42;;;;;;;5.68;4.30;;;;;;;;;;5073468;28;20239;-81
2022/01/29 03:20:11;;;;;;;5.78;3.75;;;;;;;;;;5073569;28;20715;-80
2022/01/29 03:22:39;;;;;;;3.97;3.60;;;;;;;;;;5076384;28;20232;-80
2022/01/29 03:25:07;;;;;;;6.18;4.20;;;;;;;;;;5077041;28;20204;-81
2022/01/29 03:27:36;;;;;;;4.32;3.50;;;;;;;;;;5076743;28;20228;-81
2022/01/29 03:30:04;;;;;;;3.88;3.58;;;;;;;;;;5076510;28;20330;-80
2022/01/29 03:32:31;;;;;;;3.78;3.13;;;;;;;;;;5077314;28;20201;-81
2022/01/29 03:34:59;;;;;;;4.28;3.47;;;;;;;;;;5077871;28;20227;-80
2022/01/29 03:37:26;;;;;;;3.83;3.05;;;;;;;;;;5076806;28;20262;-81
2022/01/29 03:39:58;;;;;;;4.78;3.72;;;;;;;;;;5076719;28;20197;-80
2022/01/29 03:42:27;;;;;;;4.65;3.22;;;;;;;;;;5077602;28;20197;-80
2022/01/29 03:44:57;;;;;;;4.22;3.60;;;;;;;;;;5076761;28;20228;-80
2022/01/29 03:47:24;;;;;;;4.72;4.32;;;;;;;;;;5077413;28;20735;-81
2022/01/29 03:49:52;;;;;;;4.82;3.90;;;;;;;;;;5077681;28;20221;-80
2022/01/29 03:52:19;;;;;;;3.83;3.53;;;;;;;;;;5081571;28;20201;-80
2022/01/29 03:54:46;;;;;;;6.68;4.72;;;;;;;;;;5078799;28;20197;-80
2022/01/29 03:57:13;;;;;;;4.82;4.03;;;;;;;;;;5079290;28;20221;-80
2022/01/29 03:59:41;;;;;;;5.28;3.92;;;;;;;;;;5075964;28;20661;-81
2022/01/29 04:02:10;;;;;;;10.85;5.55;;;;;;;;;;5076182;28;20208;-80
2022/01/29 04:04:37;;;;;;;5.03;4.63;;;;;;;;;;5076784;28;20243;-81
2022/01/29 04:07:10;;;;;;;4.57;3.47;;;;;;;;;;5076958;28;20228;-81
2022/01/29 04:09:39;;;;;;;3.78;3.45;;;;;;;;;;5076239;28;20232;-80
2022/01/29 04:12:07;;;;;;;6.05;5.45;;;;;;;;;;5076469;28;20201;-80
2022/01/29 04:14:38;;;;;;;7.10;5.85;;;;;;;;;;5076099;28;20696;-81
2022/01/29 04:17:07;;;;;;;5.88;4.78;;;;;;;;;;5076153;28;20755;-81
2022/01/29 04:19:36;;;;;;;4.78;4.38;;;;;;;;;;5076382;28;20260;-82
2022/01/29 04:22:04;;;;;;;4.70;4.30;;;;;;;;;;5075387;28;20734;-81
2022/01/29 04:24:31;;;;;;;5.03;4.40;;;;;;;;;;5076276;28;20201;-80
2022/01/29 04:26:59;;;;;;;3.83;3.33;;;;;;;;;;5075991;28;20221;-81
2022/01/29 04:29:28;;;;;;;5.50;4.95;;;;;;;;;;5076184;28;20320;-81
2022/01/29 04:32:06;;;;;;;5.43;4.35;;;;;;;;;;5075703;28;20201;-80
2022/01/29 04:34:34;;;;;;;4.57;4.15;;;;;;;;;;5075145;28;20618;-81
2022/01/29 04:37:02;;;;;;;6.15;4.45;;;;;;;;;;5075200;28;20221;-81
2022/01/29 04:39:29;;;;;;;5.20;4.57;;;;;;;;;;5075630;28;20200;-80
2022/01/29 04:41:56;;;;;;;4.10;3.70;;;;;;;;;;5075720;28;20247;-81
2022/01/29 04:44:23;;;;;;;4.63;4.22;;;;;;;;;;5075713;28;20726;-81
2022/01/29 04:46:51;;;;;;;4.32;3.78;;;;;;;;;;5075708;28;20274;-81
2022/01/29 04:49:18;;;;;;;5.78;4.47;;;;;;;;;;5075728;28;20228;-81
2022/01/29 04:51:46;;;;;;;5.10;3.88;;;;;;;;;;5075721;28;20209;-81
2022/01/29 04:54:14;;;;;;;5.45;4.80;;;;;;;;;;5075973;28;20618;-81
2022/01/29 04:56:41;;;;;;;4.53;3.95;;;;;;;;;;5075779;28;20625;-80
2022/01/29 04:59:08;;;;;;;7.38;5.60;;;;;;;;;;5074692;28;20692;-81
2022/01/29 05:01:35;;;;;;;5.03;4.53;;;;;;;;;;5076271;28;20278;-81
2022/01/29 05:04:03;;;;;;;5.75;4.40;;;;;;;;;;5075490;28;20212;-81
2022/01/29 05:06:30;;;;;;;4.78;4.28;;;;;;;;;;5075162;28;20200;-81
2022/01/29 05:08:59;;;;;;;5.78;3.95;;;;;;;;;;5075338;28;20226;-81
2022/01/29 05:11:26;;;;;;;4.80;3.95;;;;;;;;;;5075542;28;20620;-81
2022/01/29 05:13:53;;;;;;;5.95;5.15;;;;;;;;;;5074783;28;20211;-82
2022/01/29 05:16:36;;;;;;;4.50;3.70;;;;;;;;;;5075457;28;20197;-81
2022/01/29 05:27:34;;;;;;;3.88;3.47;;;;;;;;;;5056418;28;20610;-82
2022/01/29 05:30:01;;;;;;;4.50;4.18;;;;;;;;;;5075078;28;20232;-81
2022/01/29 05:32:29;;;;;;;8.55;6.10;;;;;;;;;;5074738;28;20579;-81
2022/01/29 05:34:56;;;;;;;5.25;4.03;;;;;;;;;;5075228;28;20625;-81
2022/01/29 05:37:23;;;;;;;7.45;5.05;;;;;;;;;;5074753;28;20224;-81
2022/01/29 05:39:52;;;;;;;4.90;4.40;;;;;;;;;;5074777;28;20201;-81
2022/01/29 05:42:19;;;;;;;5.60;4.70;;;;;;;;;;5073970;28;20213;-81
2022/01/29 05:44:46;;;;;;;8.48;4.90;;;;;;;;;;5073294;28;20205;-81
2022/01/29 05:47:13;;;;;;;8.02;5.65;;;;;;;;;;5074068;28;20228;-84
2022/01/29 05:49:41;;;;;;;4.60;4.10;;;;;;;;;;5074092;28;20228;-84
2022/01/29 05:52:08;;;;;;;4.88;3.70;;;;;;;;;;5074002;28;20202;-83
2022/01/29 05:54:35;;;;;;;5.40;4.90;;;;;;;;;;5074428;28;20201;-83
2022/01/29 05:57:04;;;;;;;6.35;4.63;;;;;;;;;;5074482;28;20306;-83
2022/01/29 05:59:34;;;;;;;6.75;5.53;;;;;;;;;;5073963;28;20665;-84
2022/01/29 06:02:02;;;;;;;7.25;4.85;;;;;;;;;;5074481;28;20201;-84
2022/01/29 06:04:29;;;;;;;5.38;4.85;;;;;;;;;;5074958;28;20204;-84
2022/01/29 06:06:57;;;;;;;5.25;4.75;;;;;;;;;;5075275;28;20223;-84
2022/01/29 06:09:24;;;;;;;4.43;3.85;;;;;;;;;;5074409;28;20232;-84
2022/01/29 06:11:51;;;;;;;4.45;3.95;;;;;;;;;;5074581;28;20201;-84
2022/01/29 06:14:20;;;;;;;4.93;4.43;;;;;;;;;;5074725;28;20212;-85
2022/01/29 06:16:47;;;;;;;6.25;4.07;;;;;;;;;;5074721;28;20225;-84
2022/01/29 06:19:14;;;;;;;4.88;4.20;;;;;;;;;;5074480;28;20200;-84
2022/01/29 06:21:42;;;;;;;4.05;3.67;;;;;;;;;;5074857;28;20236;-84
2022/01/29 06:24:09;;;;;;;4.57;4.18;;;;;;;;;;5075088;28;20292;-84
2022/01/29 06:26:36;;;;;;;4.35;3.45;;;;;;;;;;5074177;28;20204;-84
2022/01/29 06:29:04;;;;;;;3.55;3.20;;;;;;;;;;5074885;28;20201;-83
2022/01/29 06:31:33;;;;;;;3.47;3.08;;;;;;;;;;5074290;28;20595;-84
2022/01/29 06:34:00;;;;;;;2.97;2.67;;;;;;;;;;5074424;28;20254;-84
2022/01/29 06:36:27;;;;;;;4.07;3.17;;;;;;;;;;5075065;28;20199;-84
2022/01/29 06:38:55;;;;;;;4.63;3.63;;;;;;;;;;5074415;28;20234;-84
2022/01/29 06:41:22;;;;;;;3.10;2.55;;;;;;;;;;5073555;28;20208;-84
2022/01/29 06:43:49;;;;;;;3.80;3.22;;;;;;;;;;5073793;28;20201;-84
2022/01/29 06:46:17;;;;;;;2.65;2.45;;;;;;;;;;5074202;28;20196;-84
2022/01/29 06:48:46;;;;;;;3.75;3.40;;;;;;;;;;5073199;28;20637;-83
2022/01/29 06:51:13;;;;;;;3.83;3.38;;;;;;;;;;5074310;28;20225;-83
2022/01/29 06:53:40;;;;;;;3.40;3.05;;;;;;;;;;5073523;28;20270;-83
2022/01/29 06:56:08;;;;;;;3.90;3.50;;;;;;;;;;5075563;28;20201;-82
2022/01/29 06:58:36;;;;;;;2.97;2.40;;;;;;;;;;5078134;28;20225;-84
2022/01/29 07:01:03;;;;;;;2.50;2.30;;;;;;;;;;5078345;28;20615;-83
2022/01/29 07:03:30;;;;;;;4.05;2.70;;;;;;;;;;5078201;28;20201;-83
2022/01/29 07:05:59;;;;;;;4.03;3.28;;;;;;;;;;5077828;28;20251;-83
2022/01/29 07:08:26;;;;;;;2.65;2.42;;;;;;;;;;5077637;28;20247;-83
2022/01/29 07:10:53;;;;;;;2.90;2.63;;;;;;;;;;5077506;28;20221;-84
2022/01/29 07:13:21;;;;;;;2.58;2.38;;;;;;;;;;5077000;28;20208;-83
2022/01/29 07:15:49;;;;;;;2.35;2.15;;;;;;;;;;5077642;28;20553;-83
2022/01/29 07:18:16;;;;;;;2.33;2.03;;;;;;;;;;5076822;28;20631;-82
2022/01/29 07:20:46;;;;;;;3.05;2.53;;;;;;;;;;5076805;28;20193;-83
2022/01/29 07:23:14;;;;;;;3.42;3.10;;;;;;;;;;5076672;28;20201;-83
2022/01/29 07:25:41;;;;;;;3.35;3.05;;;;;;;;;;5077007;28;20213;-82
2022/01/29 07:28:09;;;;;;;3.25;2.85;;;;;;;;;;5077527;28;20595;-83
2022/01/29 07:30:37;;;;;;;2.65;2.45;;;;;;;;;;5076827;28;20229;-83
2022/01/29 07:33:04;;;;;;;2.30;2.10;;;;;;;;;;5077637;28;20215;-83
2022/01/29 07:35:31;;;;;;;2.25;1.98;;;;;;;;;;5077048;28;20684;-82
2022/01/29 07:37:59;;;;;;;2.53;2.33;;;;;;;;;;5076841;28;20216;-82
2022/01/29 07:40:27;;;;;;;2.17;2.00;;;;;;;;;;5077228;28;20205;-83
2022/01/29 07:42:55;;;;;;;3.28;2.75;;;;;;;;;;5076308;28;20201;-83
2022/01/29 07:45:22;;;;;;;2.47;2.28;;;;;;;;;;5076445;28;20208;-84
2022/01/29 07:47:49;;;;;;;4.53;3.05;;;;;;;;;;5076888;28;20224;-83
2022/01/29 07:50:16;;;;;;;3.63;3.25;;;;;;;;;;5076758;28;20213;-82
2022/01/29 07:52:44;;;;;;;3.10;2.60;;;;;;;;;;5076274;28;20208;-82
2022/01/29 07:55:11;;;;;;;3.47;2.92;;;;;;;;;;5077679;28;20250;-82
2022/01/29 07:57:40;;;;;;;2.75;2.55;;;;;;;;;;5077164;28;20731;-85
2022/01/29 08:00:11;;;;;;;3.65;2.92;;;;;;;;;;5076359;28;20201;-82
2022/01/29 08:02:38;;;;;;;3.67;2.83;;;;;;;;;;5076452;28;20205;-83
2022/01/29 08:05:06;;;;;;;3.67;3.38;;;;;;;;;;5077145;28;20209;-82
2022/01/29 08:07:33;;;;;;;2.70;2.50;;;;;;;;;;5076470;28;20225;-82
2022/01/29 08:10:01;;;;;;;2.83;2.40;;;;;;;;;;5075781;28;20205;-82
2022/01/29 08:12:28;;;;;;;3.67;3.38;;;;;;;;;;5075404;28;20696;-83
2022/01/29 08:14:57;;;;;;;4.22;3.70;;;;;;;;;;5076138;28;20201;-84
2022/01/29 08:17:24;;;;;;;4.90;3.17;;;;;;;;;;5075699;28;20762;-83
2022/01/29 08:19:52;;;;;;;3.00;2.80;;;;;;;;;;5076931;28;20204;-82
2022/01/29 08:22:19;;;;;;;4.80;4.00;;;;;;;;;;5075982;28;20204;-83
2022/01/29 08:24:47;;;;;;;3.38;3.08;;;;;;;;;;5076250;28;20254;-82
2022/01/29 08:27:14;;;;;;;4.35;3.90;;;;;;;;;;5076537;28;20224;-84
2022/01/29 08:29:41;;;;;;;5.65;4.43;;;;;;;;;;5075866;28;20197;-83
2022/01/29 08:32:11;;;;;;;3.75;3.05;;;;;;;;;;5075925;28;20786;-83
2022/01/29 08:34:39;;;;;;;4.68;4.00;;;;;;;;;;5076420;28;20673;-83
2022/01/29 08:37:07;;;;;;;5.97;4.28;;;;;;;;;;5076276;28;20229;-84
2022/01/29 08:39:34;;;;;;;3.95;3.65;;;;;;;;;;5075925;28;20215;-82
2022/01/29 08:42:02;;;;;;;4.03;3.65;;;;;;;;;;5075247;28;20193;-82
2022/01/29 08:44:29;;;;;;;3.75;3.38;;;;;;;;;;5076414;28;20227;-83
2022/01/29 08:46:57;;;;;;;3.00;2.65;;;;;;;;;;5076072;28;20221;-82
2022/01/29 08:49:26;;;;;;;2.85;2.50;;;;;;;;;;5075990;28;20668;-83
2022/01/29 08:51:53;;;;;;;3.45;3.15;;;;;;;;;;5076201;28;20311;-83
2022/01/29 08:54:20;;;;;;;3.25;2.95;;;;;;;;;;5075888;28;20209;-83
2022/01/29 08:56:48;;;;;;;3.33;2.90;;;;;;;;;;5075326;28;20225;-84
2022/01/29 08:59:15;;;;;;;3.03;2.60;;;;;;;;;;5074783;28;20201;-83
2022/01/29 09:01:42;;;;;;;3.63;3.00;;;;;;;;;;5076089;28;20201;-83
2022/01/29 09:04:10;;;;;;;2.38;2.17;;;;;;;;;;5075868;28;20212;-85
2022/01/29 09:06:39;;;;;;;3.28;2.72;;;;;;;;;;5077475;28;20209;-84
2022/01/29 09:09:06;;;;;;;3.35;3.10;;;;;;;;;;5075374;28;20197;-83
2022/01/29 09:11:33;;;;;;;2.05;1.83;;;;;;;;;;5075977;28;20217;-84
2022/01/29 09:14:01;;;;;;;2.95;2.70;;;;;;;;;;5075674;28;20197;-84
2022/01/29 09:16:28;;;;;;;2.67;2.33;;;;;;;;;;5075984;28;20707;-84
2022/01/29 09:18:55;;;;;;;2.53;2.33;;;;;;;;;;5081799;28;20193;-83
2022/01/29 09:21:23;;;;;;;4.55;4.15;;;;;;;;;;5086972;28;20673;-84
2022/01/29 09:23:55;;;;;;;2.70;2.42;;;;;;;;;;5087308;28;20209;-82
2022/01/29 09:26:23;;;;;;;2.22;2.03;;;;;;;;;;5083712;28;20193;-83
2022/01/29 09:28:50;;;;;;;2.63;2.40;;;;;;;;;;5074559;28;20204;-82
2022/01/29 09:31:17;;;;;;;2.55;2.35;;;;;;;;;;5074406;28;20328;-83
2022/01/29 09:33:45;;;;;;;2.20;2.10;;;;;;;;;;5073976;28;20556;-83
2022/01/29 09:36:12;;;;;;;2.63;2.42;;;;;;;;;;5074264;28;20219;-83
2022/01/29 09:38:39;;;;;;;2.58;2.38;;;;;;;;;;5074207;28;20221;-84
2022/01/29 09:41:09;;;;;;;2.95;2.70;;;;;;;;;;5074582;28;20624;-83
2022/01/29 09:43:36;;;;;;;2.60;2.40;;;;;;;;;;5074463;28;20197;-83
2022/01/29 09:46:04;;;;;;;2.30;2.10;;;;;;;;;;5074055;28;20695;-83
2022/01/29 09:48:31;;;;;;;2.13;2.00;;;;;;;;;;5074536;28;20221;-83
2022/01/29 09:51:00;;;;;;;1.88;1.70;;;;;;;;;;5074215;28;20208;-83
2022/01/29 09:53:27;;;;;;;2.13;1.98;;;;;;;;;;5074188;28;20765;-83
2022/01/29 09:55:54;;;;;;;2.15;1.95;;;;;;;;;;5074643;28;20204;-83
2022/01/29 09:58:23;;;;;;;1.73;1.63;;;;;;;;;;5073949;28;20227;-83
2022/01/29 10:00:50;;;;;;;3.42;2.20;;;;;;;;;;5075277;28;20205;-84
2022/01/29 10:03:20;;;;;;;2.72;2.53;;;;;;;;;;5074566;28;20205;-83
2022/01/29 10:05:50;;;;;;;2.30;2.10;;;;;;;;;;5075191;28;20216;-84
2022/01/29 10:08:18;;;;;;;2.35;2.15;;;;;;;;;;5074870;28;20217;-84
2022/01/29 10:10:47;;;;;;;2.30;1.92;;;;;;;;;;5074791;28;20208;-83
2022/01/29 10:13:30;;;;;;;2.10;1.90;;;;;;;;;;5074046;28;20650;-83
2022/01/29 10:16:12;;;;;;;2.17;2.00;;;;;;;;;;5073829;28;20602;-83
2022/01/29 10:18:41;;;;;;;1.95;1.75;;;;;;;;;;5073901;28;20229;-84
2022/01/29 10:21:13;;;;;;;2.20;1.80;;;;;;;;;;5074443;28;20591;-83
2022/01/29 10:23:42;;;;;;;2.05;1.85;;;;;;;;;;5073981;28;20201;-84
2022/01/29 10:26:10;;;;;;;1.52;1.45;;;;;;;;;;5074413;28;20259;-83
2022/01/29 10:28:40;;;;;;;1.45;1.35;;;;;;;;;;5073644;28;20263;-84
2022/01/29 10:31:09;;;;;;;2.30;2.10;;;;;;;;;;5073736;28;20676;-84
2022/01/29 10:33:37;;;;;;;1.70;1.60;;;;;;;;;;5073535;28;20243;-84
2022/01/29 10:36:07;;;;;;;2.13;1.67;;;;;;;;;;5073907;28;20691;-84
2022/01/29 10:38:53;;;;;;;1.52;1.42;;;;;;;;;;5074039;28;20569;-84
2022/01/29 10:41:25;;;;;;;1.60;1.50;;;;;;;;;;5074586;28;20208;-84
2022/01/29 10:44:16;;;;;;;1.70;1.60;;;;;;;;;;5074002;28;20229;-85
2022/01/29 10:46:49;;;;;;;1.70;1.60;;;;;;;;;;5074098;28;20201;-84
2022/01/29 10:49:25;;;;;;;1.60;1.50;;;;;;;;;;5074357;28;20587;-85
2022/01/29 10:52:03;;;;;;;1.67;1.58;;;;;;;;;;5073624;28;20270;-85
2022/01/29 10:54:32;;;;;;;1.58;1.48;;;;;;;;;;5074057;28;20201;-85
2022/01/29 10:57:03;;;;;;;2.15;2.03;;;;;;;;;;5073590;28;20228;-84
2022/01/29 10:59:34;;;;;;;1.95;1.70;;;;;;;;;;5074116;28;20208;-85
2022/01/29 11:02:04;;;;;;;1.60;1.50;;;;;;;;;;5073571;28;20207;-85
2022/01/29 11:04:34;;;;;;;1.70;1.60;;;;;;;;;;5074445;28;20194;-85
2022/01/29 11:07:05;;;;;;;3.08;2.35;;;;;;;;;;5074154;28;20282;-85
2022/01/29 11:09:34;;;;;;;1.63;1.52;;;;;;;;;;5074537;28;20201;-85
2022/01/29 11:12:04;;;;;;;1.60;1.50;;;;;;;;;;5073893;28;20291;-85
2022/01/29 11:14:35;;;;;;;1.50;1.40;;;;;;;;;;5074670;28;20671;-84
2022/01/29 11:17:04;;;;;;;1.70;1.60;;;;;;;;;;5074333;28;20638;-84
2022/01/29 11:19:32;;;;;;;1.48;1.38;;;;;;;;;;5074233;28;20583;-84
2022/01/29 11:22:04;;;;;;;1.60;1.50;;;;;;;;;;5074273;28;20540;-85
2022/01/29 11:24:32;;;;;;;1.50;1.40;;;;;;;;;;5074470;28;20205;-85
2022/01/29 11:26:59;;;;;;;1.23;1.20;;;;;;;;;;5074128;28;20225;-84
2022/01/29 11:29:31;;;;;;;2.58;2.38;;;;;;;;;;5074160;28;20212;-85
2022/01/29 11:32:35;;;;;;;1.65;1.55;;;;;;;;;;5074050;28;20387;-85
2022/01/29 11:35:07;;;;;;;2.10;1.90;;;;;;;;;;5074781;28;20208;-84
2022/01/29 11:37:43;;;;;;;1.58;1.40;;;;;;;;;;5074706;28;20244;-84
2022/01/29 11:40:20;;;;;;;2.45;2.00;;;;;;;;;;5073892;28;20205;-85
2022/01/29 11:42:58;;;;;;;2.20;2.10;;;;;;;;;;5076055;28;20197;-86
2022/01/29 11:45:42;;;;;;;1.70;1.60;;;;;;;;;;5078287;28;20570;-84
2022/01/29 11:48:55;;;;;;;1.67;1.42;;;;;;;;;;5077901;28;20221;-85
2022/01/29 11:51:46;;;;;;;2.38;2.17;;;;;;;;;;5078036;28;20208;-85
2022/01/29 11:54:18;;;;;;;1.38;1.27;;;;;;;;;;5076394;28;20221;-85
2022/01/29 11:56:46;;;;;;;1.85;1.75;;;;;;;;;;5077332;28;20234;-85
2022/01/29 11:59:31;;;;;;;2.13;1.92;;;;;;;;;;5077325;28;20197;-85
2022/01/29 12:02:01;;;;;;;1.83;1.73;;;;;;;;;;5077114;28;20285;-85
2022/01/29 12:05:07;;;;;;;1.75;1.65;;;;;;;;;;5076887;28;20197;-84
2022/01/29 12:07:40;;;;;;;1.50;1.40;;;;;;;;;;5077323;28;20221;-84
2022/01/29 12:10:11;;;;;;;1.70;1.60;;;;;;;;;;5076370;28;20668;-84
2022/01/29 12:12:40;;;;;;;1.30;1.20;;;;;;;;;;5076596;28;20205;-85
2022/01/29 12:15:39;;;;;;;1.20;1.20;;;;;;;;;;5076716;28;20197;-85
2022/01/29 12:18:31;;;;;;;1.40;1.30;;;;;;;;;;5076481;28;20309;-85
2022/01/29 12:21:01;;;;;;;1.98;1.58;;;;;;;;;;5077088;28;20312;-86
2022/01/29 12:23:28;;;;;;;1.17;1.08;;;;;;;;;;5076556;28;20204;-83
2022/01/29 12:25:59;;;;;;;2.05;1.50;;;;;;;;;;5063385;28;20661;-85
2022/01/29 12:28:27;;;;;;;1.75;1.65;;;;;;;;;;5056058;28;20225;-84
2022/01/29 12:30:54;;;;;;;2.00;1.90;;;;;;;;;;5058422;28;20217;-85
2022/01/29 12:33:24;;;;;;;1.70;1.60;;;;;;;;;;5056753;28;20228;-83
2022/01/29 12:35:56;;;;;;;1.65;1.55;;;;;;;;;;5055655;28;20202;-83
2022/01/29 12:38:32;;;;;;;1.30;1.20;;;;;;;;;;5055581;28;20225;-83
2022/01/29 12:41:03;;;;;;;1.58;1.48;;;;;;;;;;5055655;28;20259;-83
2022/01/29 12:43:33;;;;;;;2.30;2.03;;;;;;;;;;5055759;28;20202;-86
2022/01/29 12:46:12;;;;;;;1.60;1.50;;;;;;;;;;5057417;28;20217;-86
2022/01/29 12:48:40;;;;;;;1.85;1.75;;;;;;;;;;5057935;28;20222;-86
2022/01/29 12:51:10;;;;;;;1.48;1.38;;;;;;;;;;5058148;28;20197;-86
2022/01/29 12:53:40;;;;;;;1.40;1.40;;;;;;;;;;5058304;28;20225;-86
2022/01/29 12:56:11;;;;;;;2.08;1.98;;;;;;;;;;5058413;28;20228;-85
2022/01/29 12:58:42;;;;;;;2.60;2.40;;;;;;;;;;5056029;28;20214;-85
2022/01/29 13:01:12;;;;;;;1.35;1.35;;;;;;;;;;5056367;28;20196;-84
2022/01/29 13:03:41;;;;;;;1.55;1.45;;;;;;;;;;5055093;28;20206;-84
2022/01/29 13:06:10;;;;;;;2.22;1.80;;;;;;;;;;5058576;28;20210;-85
2022/01/29 13:08:39;;;;;;;1.70;1.60;;;;;;;;;;5054800;28;20591;-84
2022/01/29 13:11:22;;;;;;;1.98;1.88;;;;;;;;;;5054148;28;20213;-84
2022/01/29 13:13:50;;;;;;;1.75;1.65;;;;;;;;;;5054652;28;20221;-84
2022/01/29 13:16:17;;;;;;;1.92;1.83;;;;;;;;;;5054514;28;20209;-82
2022/01/29 13:18:45;;;;;;;1.40;1.30;;;;;;;;;;5053533;28;20229;-83
2022/01/29 13:21:13;;;;;;;1.30;1.20;;;;;;;;;;5053708;28;20267;-83
2022/01/29 13:23:42;;;;;;;1.55;1.45;;;;;;;;;;5053765;28;20201;-83
2022/01/29 13:26:17;;;;;;;1.30;1.30;;;;;;;;;;5054349;28;20201;-82
2022/01/29 13:28:47;;;;;;;1.50;1.40;;;;;;;;;;5054239;28;20240;-83
2022/01/29 13:31:15;;;;;;;1.00;1.00;;;;;;;;;;5054222;28;20201;-83
2022/01/29 13:33:45;;;;;;;1.40;1.30;;;;;;;;;;5053724;28;20226;-83
2022/01/29 13:36:14;;;;;;;1.10;1.10;;;;;;;;;;5054271;28;20616;-82
2022/01/29 13:38:43;;;;;;;1.35;1.30;;;;;;;;;;5054538;28;20768;-84
2022/01/29 13:41:21;;;;;;;1.00;1.00;;;;;;;;;;5055635;28;20214;-83
2022/01/29 13:43:48;;;;;;;1.23;1.13;;;;;;;;;;5055555;28;20205;-83
2022/01/29 13:46:21;;;;;;;1.00;1.00;;;;;;;;;;5053712;28;20197;-82
2022/01/29 13:48:52;;;;;;;1.20;1.20;;;;;;;;;;5053440;28;20229;-83
2022/01/29 13:51:29;;;;;;;1.35;1.02;;;;;;;;;;5055400;28;20240;-82
2022/01/29 13:54:00;;;;;;;0.80;0.80;;;;;;;;;;5053379;28;20225;-82
2022/01/29 13:56:29;;;;;;;0.90;0.80;;;;;;;;;;5053111;28;20205;-82
2022/01/29 13:58:59;;;;;;;0.90;0.90;;;;;;;;;;5055488;28;20696;-82
2022/01/29 14:01:41;;;;;;;1.02;0.75;;;;;;;;;;5053049;28;20205;-84
2022/01/29 14:04:10;;;;;;;0.85;0.85;;;;;;;;;;5053387;28;20215;-82
2022/01/29 14:06:40;;;;;;;0.80;0.80;;;;;;;;;;5052995;28;20205;-82
2022/01/29 14:09:30;;;;;;;0.50;0.50;;;;;;;;;;5052768;28;20201;-82
2022/01/29 14:12:17;;;;;;;0.55;0.55;;;;;;;;;;5052898;28;20264;-83
2022/01/29 14:14:48;;;;;;;0.70;0.70;;;;;;;;;;5053959;28;20228;-83
2022/01/29 14:17:19;;;;;;;0.60;0.60;;;;;;;;;;5053974;28;20232;-82
2022/01/29 14:19:48;;;;;;;0.68;0.68;;;;;;;;;;5053069;28;20205;-82
2022/01/29 14:22:16;;;;;;;0.63;0.63;;;;;;;;;;5054142;28;20221;-83
2022/01/29 14:24:45;;;;;;;0.65;0.65;;;;;;;;;;5053051;28;20205;-83
2022/01/29 14:27:13;;;;;;;1.45;0.80;;;;;;;;;;5052870;28;20308;-84
2022/01/29 14:29:43;;;;;;;0.70;0.70;;;;;;;;;;5053216;28;20198;-82
2022/01/29 14:32:11;;;;;;;0.98;0.98;;;;;;;;;;5053522;28;20201;-83
2022/01/29 14:34:39;;;;;;;1.25;1.15;;;;;;;;;;5052937;28;20228;-83
2022/01/29 14:37:07;;;;;;;0.80;0.80;;;;;;;;;;5053441;28;20891;-83
2022/01/29 14:39:35;;;;;;;0.90;0.90;;;;;;;;;;5054243;28;20251;-84
2022/01/29 14:42:07;;;;;;;1.00;0.90;;;;;;;;;;5053745;28;20277;-84
2022/01/29 14:44:38;;;;;;;5.18;4.68;;;;;;;;;;5054081;28;20201;-84
2022/01/29 14:47:07;;;;;;;1.40;1.30;;;;;;;;;;5055824;28;20245;-86
2022/01/29 14:49:34;;;;;;;1.50;1.40;;;;;;;;;;5056230;28;20261;-85
2022/01/29 14:52:05;;;;;;;1.20;1.10;;;;;;;;;;5056733;28;20197;-85
2022/01/29 14:54:33;;;;;;;1.00;1.00;;;;;;;;;;5055906;28;20209;-85
2022/01/29 14:58:04;;;;;;;1.40;1.30;;;;;;;;;;5069319;28;20255;-85
2022/01/29 15:00:32;;;;;;;0.98;0.98;;;;;;;;;;5023769;28;20201;-84
2022/01/29 15:03:00;;;;;;;1.05;1.05;;;;;;;;;;5076567;28;20201;-84
2022/01/29 15:05:27;;;;;;;1.38;1.27;;;;;;;;;;5075300;28;20587;-84
2022/01/29 15:07:54;;;;;;;1.20;1.20;;;;;;;;;;5074381;28;20236;-84